createdAt,value
2023-03-20T00:01:58.447Z,101204.31
2023-03-20T00:04:26.092Z,101206.22
2023-03-20T00:06:52.584Z,101204.94
2023-03-20T00:09:19.153Z,101207.50
2023-03-20T00:11:51.338Z,101199.00
2023-03-20T00:14:22.321Z,101196.25
2023-03-20T00:16:49.438Z,101204.31
2023-03-20T00:19:19.148Z,101213.22
2023-03-20T00:21:47.838Z,101216.19
2023-03-20T00:24:15.404Z,101214.25
2023-03-20T00:26:43.691Z,101220.63
2023-03-20T00:29:19.245Z,101219.34
2023-03-20T00:31:45.796Z,101219.34
2023-03-20T00:34:16.151Z,101232.06
2023-03-20T00:36:43.027Z,101239.72
2023-03-20T00:39:09.570Z,101235.88
2023-03-20T00:41:44.006Z,101241.19
2023-03-20T00:44:34.254Z,101241.38
2023-03-20T00:47:04.409Z,101246.47
2023-03-20T00:49:35.719Z,101246.47
2023-03-20T00:52:03.740Z,101247.06
2023-03-20T00:54:30.994Z,101253.44
2023-03-20T00:57:09.318Z,101262.97
2023-03-20T00:59:40.263Z,101253.00
2023-03-20T01:02:06.936Z,101251.72
2023-03-20T01:04:39.566Z,101263.41
2023-03-20T01:07:07.516Z,101257.03
2023-03-20T01:09:33.993Z,101265.47
2023-03-20T01:12:01.429Z,101277.34
2023-03-20T01:14:27.892Z,101269.69
2023-03-20T01:16:54.367Z,101272.63
2023-03-20T01:19:21.024Z,101273.28
2023-03-20T01:21:47.597Z,101262.88
2023-03-20T01:24:14.026Z,101283.41
2023-03-20T01:26:42.991Z,101276.41
2023-03-20T01:29:29.185Z,101279.56
2023-03-20T01:31:56.012Z,101287.19
2023-03-20T01:34:22.510Z,101284.44
2023-03-20T01:36:51.891Z,101291.00
2023-03-20T01:39:21.599Z,101291.63
2023-03-20T01:41:49.720Z,101289.53
2023-03-20T01:44:30.290Z,101287.41
2023-03-20T01:46:57.562Z,101286.78
2023-03-20T01:49:23.936Z,101285.69
2023-03-20T01:51:52.009Z,101288.69
2023-03-20T01:54:28.446Z,101285.06
2023-03-20T01:57:01.538Z,101282.31
2023-03-20T01:59:33.812Z,101275.75
2023-03-20T02:02:00.352Z,101281.91
2023-03-20T02:04:33.642Z,101275.16
2023-03-20T02:07:00.600Z,101273.22
2023-03-20T02:12:03.816Z,101264.34
2023-03-20T02:14:32.557Z,101260.31
2023-03-20T02:16:59.218Z,101255.66
2023-03-20T02:19:55.513Z,101253.31
2023-03-20T02:22:41.526Z,101251.63
2023-03-20T02:25:27.151Z,101247.81
2023-03-20T02:28:31.409Z,101233.19
2023-03-20T02:31:04.062Z,101239.56
2023-03-20T02:33:33.121Z,101239.56
2023-03-20T02:36:10.144Z,101236.59
2023-03-20T02:38:55.339Z,101247.63
2023-03-20T02:41:38.586Z,101255.03
2023-03-20T02:44:24.914Z,101254.19
2023-03-20T02:47:01.920Z,101261.16
2023-03-20T02:49:55.118Z,101253.94
2023-03-20T02:52:46.409Z,101263.06
2023-03-20T02:55:46.971Z,101277.91
2023-03-20T02:58:24.072Z,101274.06
2023-03-20T03:01:01.366Z,101273.44
2023-03-20T03:03:36.256Z,101268.97
2023-03-20T03:06:10.813Z,101270.44
2023-03-20T03:08:42.458Z,101272.13
2023-03-20T03:11:10.260Z,101256.25
2023-03-20T03:13:42.995Z,101254.16
2023-03-20T03:16:14.433Z,101260.47
2023-03-20T03:18:43.437Z,101267.91
2023-03-20T03:21:13.575Z,101268.56
2023-03-20T03:23:45.232Z,101252.03
2023-03-20T03:26:21.207Z,101248.22
2023-03-20T03:28:53.732Z,101242.06
2023-03-20T03:31:21.962Z,101257.72
2023-03-20T03:33:51.901Z,101273.44
2023-03-20T03:36:38.465Z,101272.75
2023-03-20T03:39:10.554Z,101275.50
2023-03-20T03:41:44.951Z,101274.88
2023-03-20T03:44:26.440Z,101279.72
2023-03-20T03:46:55.679Z,101268.72
2023-03-20T03:49:27.944Z,101269.56
2023-03-20T03:52:00.656Z,101270.19
2023-03-20T03:54:45.386Z,101274.00
2023-03-20T03:57:16.173Z,101282.25
2023-03-20T03:59:47.831Z,101283.09
2023-03-20T04:02:14.567Z,101287.78
2023-03-20T04:04:46.191Z,101298.78
2023-03-20T04:07:14.345Z,101291.75
2023-03-20T04:09:40.957Z,101284.34
2023-03-20T04:12:38.760Z,101275.06
2023-03-20T04:15:06.685Z,101274.38
2023-03-20T04:17:33.757Z,101281.59
2023-03-20T04:20:00.617Z,101280.56
2023-03-20T04:22:27.419Z,101275.06
2023-03-20T04:24:53.866Z,101277.81
2023-03-20T04:27:21.030Z,101271.63
2023-03-20T04:29:47.738Z,101283.91
2023-03-20T04:32:14.304Z,101280.31
2023-03-20T04:34:40.739Z,101281.34
2023-03-20T04:37:08.382Z,101283.47
2023-03-20T04:39:36.806Z,101294.47
2023-03-20T04:42:04.636Z,101298.50
2023-03-20T04:44:31.070Z,101285.97
2023-03-20T04:46:57.934Z,101284.91
2023-03-20T04:49:24.471Z,101291.47
2023-03-20T04:51:50.977Z,101287.03
2023-03-20T04:54:17.550Z,101294.44
2023-03-20T04:56:43.974Z,101283.63
2023-03-20T04:59:10.563Z,101280.88
2023-03-20T05:01:36.996Z,101288.28
2023-03-20T05:04:03.510Z,101283.00
2023-03-20T05:06:31.680Z,101281.28
2023-03-20T05:08:59.510Z,101281.28
2023-03-20T05:11:26.775Z,101287.81
2023-03-20T05:13:53.289Z,101277.91
2023-03-20T05:16:19.972Z,101279.56
2023-03-20T05:18:46.647Z,101276.19
2023-03-20T05:21:13.609Z,101274.47
2023-03-20T05:23:40.260Z,101279.13
2023-03-20T05:26:07.424Z,101271.09
2023-03-20T05:28:33.874Z,101285.03
2023-03-20T05:31:00.481Z,101274.63
2023-03-20T05:33:27.048Z,101280.53
2023-03-20T05:35:53.550Z,101274.41
2023-03-20T05:38:22.746Z,101276.69
2023-03-20T05:40:50.284Z,101271.38
2023-03-20T05:43:16.904Z,101274.31
2023-03-20T05:45:43.608Z,101263.53
2023-03-20T05:48:10.196Z,101263.25
2023-03-20T05:50:36.672Z,101257.75
2023-03-20T05:53:03.112Z,101258.84
2023-03-20T05:55:29.546Z,101264.53
2023-03-20T05:57:56.110Z,101257.31
2023-03-20T06:00:23.223Z,101267.69
2023-03-20T06:02:49.634Z,101271.06
2023-03-20T06:05:16.412Z,101263.66
2023-03-20T06:07:43.544Z,101267.09
2023-03-20T06:10:10.636Z,101281.47
2023-03-20T06:12:37.056Z,101270.28
2023-03-20T06:15:03.834Z,101282.09
2023-03-20T06:17:30.435Z,101283.19
2023-03-20T06:19:56.883Z,101284.84
2023-03-20T06:22:23.261Z,101289.31
2023-03-20T06:24:49.659Z,101290.81
2023-03-20T06:27:16.103Z,101293.38
2023-03-20T06:29:42.547Z,101289.19
2023-03-20T06:32:09.553Z,101291.34
2023-03-20T06:34:36.014Z,101290.09
2023-03-20T06:37:02.384Z,101296.06
2023-03-20T06:39:28.812Z,101299.06
2023-03-20T06:41:55.207Z,101303.50
2023-03-20T06:44:21.612Z,101302.44
2023-03-20T06:46:48.020Z,101305.00
2023-03-20T06:49:15.485Z,101310.28
2023-03-20T06:51:41.969Z,101308.41
2023-03-20T06:54:08.357Z,101309.25
2023-03-20T06:56:34.787Z,101296.59
2023-03-20T06:59:01.230Z,101301.69
2023-03-20T07:01:28.189Z,101295.97
2023-03-20T07:03:54.881Z,101292.34
2023-03-20T07:06:21.521Z,101303.00
2023-03-20T07:08:47.908Z,101297.94
2023-03-20T07:11:14.457Z,101300.72
2023-03-20T07:13:41.573Z,101303.50
2023-03-20T07:16:08.938Z,101305.22
2023-03-20T07:18:35.602Z,101301.00
2023-03-20T07:21:05.203Z,101301.47
2023-03-20T07:23:34.330Z,101309.09
2023-03-20T07:26:00.998Z,101303.00
2023-03-20T07:28:27.380Z,101300.00
2023-03-20T07:30:54.648Z,101301.53
2023-03-20T07:33:21.261Z,101313.00
2023-03-20T07:35:52.420Z,101312.34
2023-03-20T07:38:18.802Z,101315.53
2023-03-20T07:40:45.194Z,101314.06
2023-03-20T07:43:11.614Z,101311.56
2023-03-20T07:45:38.310Z,101307.34
2023-03-20T07:48:05.161Z,101313.47
2023-03-20T07:50:31.668Z,101316.03
2023-03-20T07:52:58.419Z,101316.25
2023-03-20T07:55:24.935Z,101315.22
2023-03-20T07:57:51.405Z,101322.25
2023-03-20T08:00:19.331Z,101326.09
2023-03-20T08:02:46.210Z,101324.63
2023-03-20T08:05:12.699Z,101340.78
2023-03-20T08:07:39.165Z,101347.38
2023-03-20T08:10:06.086Z,101348.88
2023-03-20T08:12:32.474Z,101344.00
2023-03-20T08:14:59.421Z,101354.84
2023-03-20T08:17:25.936Z,101349.31
2023-03-20T08:19:52.448Z,101353.56
2023-03-20T08:22:19.047Z,101345.94
2023-03-20T08:24:45.526Z,101354.63
2023-03-20T08:27:11.954Z,101349.72
2023-03-20T08:29:38.911Z,101349.31
2023-03-20T08:32:06.108Z,101352.31
2023-03-20T08:34:33.509Z,101356.53
2023-03-20T08:36:59.934Z,101360.59
2023-03-20T08:39:26.529Z,101353.34
2023-03-20T08:41:53.262Z,101359.94
2023-03-20T08:44:19.682Z,101380.97
2023-03-20T08:46:47.108Z,101373.06
2023-03-20T08:49:13.778Z,101376.50
2023-03-20T08:51:40.322Z,101377.75
2023-03-20T08:54:07.427Z,101385.81
2023-03-20T08:56:33.890Z,101381.34
2023-03-20T08:59:00.301Z,101382.41
2023-03-20T09:01:35.368Z,101380.06
2023-03-20T09:04:08.709Z,101382.84
2023-03-20T09:06:38.782Z,101376.88
2023-03-20T09:09:05.582Z,101382.16
2023-03-20T09:11:32.869Z,101372.59
2023-03-20T09:13:59.553Z,101387.03
2023-03-20T09:16:26.698Z,101386.16
2023-03-20T09:18:53.858Z,101391.00
2023-03-20T09:21:20.324Z,101373.84
2023-03-20T09:23:47.390Z,101379.84
2023-03-20T09:26:13.783Z,101376.22
2023-03-20T09:28:40.227Z,101382.22
2023-03-20T09:31:06.872Z,101382.84
2023-03-20T09:33:33.316Z,101387.94
2023-03-20T09:36:00.067Z,101391.34
2023-03-20T09:38:27.011Z,101386.88
2023-03-20T09:41:01.175Z,101393.06
2023-03-20T09:43:58.410Z,101383.50
2023-03-20T09:46:49.896Z,101390.94
2023-03-20T09:49:54.083Z,101394.31
2023-03-20T09:52:26.290Z,101395.59
2023-03-20T09:55:22.183Z,101397.72
2023-03-20T09:58:02.514Z,101390.50
2023-03-20T10:00:32.529Z,101389.63
2023-03-20T10:03:04.890Z,101396.00
2023-03-20T10:05:39.302Z,101381.31
2023-03-20T10:08:18.598Z,101383.84
2023-03-20T10:10:58.857Z,101377.22
2023-03-20T10:13:37.334Z,101370.41
2023-03-20T10:16:16.302Z,101366.38
2023-03-20T10:18:58.160Z,101364.94
2023-03-20T10:21:43.902Z,101362.75
2023-03-20T10:24:22.585Z,101360.66
2023-03-20T10:26:53.078Z,101357.66
2023-03-20T10:29:38.359Z,101366.00
2023-03-20T10:32:29.988Z,101371.06
2023-03-20T10:35:14.057Z,101373.78
2023-03-20T10:38:03.832Z,101374.22
2023-03-20T10:40:36.637Z,101368.66
2023-03-20T10:43:14.468Z,101369.94
2023-03-20T10:45:45.754Z,101352.63
2023-03-20T10:48:33.815Z,101368.59
2023-03-20T10:51:03.305Z,101350.22
2023-03-20T10:53:41.840Z,101349.84
2023-03-20T10:56:17.190Z,101362.03
2023-03-20T10:58:47.813Z,101348.22
2023-03-20T11:01:14.602Z,101355.88
2023-03-20T11:03:41.331Z,101354.88
2023-03-20T11:06:20.157Z,101346.94
2023-03-20T11:08:51.242Z,101352.69
2023-03-20T11:11:23.107Z,101343.69
2023-03-20T11:13:49.636Z,101351.97
2023-03-20T11:16:20.694Z,101341.53
2023-03-20T11:18:49.605Z,101341.06
2023-03-20T11:21:27.912Z,101345.50
2023-03-20T11:23:55.790Z,101331.03
2023-03-20T11:26:38.203Z,101341.22
2023-03-20T11:29:16.768Z,101338.25
2023-03-20T11:31:43.577Z,101336.56
2023-03-20T11:34:16.116Z,101341.63
2023-03-20T11:37:08.575Z,101341.03
2023-03-20T11:39:38.015Z,101334.69
2023-03-20T11:42:21.491Z,101332.78
2023-03-20T11:44:57.855Z,101328.50
2023-03-20T11:47:27.440Z,101335.38
2023-03-20T11:50:00.955Z,101340.69
2023-03-20T11:52:32.925Z,101330.31
2023-03-20T11:55:03.198Z,101334.63
2023-03-20T11:57:40.033Z,101333.13
2023-03-20T12:00:23.361Z,101324.69
2023-03-20T12:02:50.654Z,101328.78
2023-03-20T12:05:29.029Z,101325.44
2023-03-20T12:08:00.929Z,101321.16
2023-03-20T12:10:32.928Z,101319.22
2023-03-20T12:13:04.613Z,101318.22
2023-03-20T12:15:35.706Z,101306.72
2023-03-20T12:18:39.008Z,101310.50
2023-03-20T12:21:19.636Z,101301.16
2023-03-20T12:24:01.765Z,101302.88
2023-03-20T12:26:56.739Z,101312.63
2023-03-20T12:29:36.405Z,101298.38
2023-03-20T12:32:10.818Z,101301.38
2023-03-20T12:35:06.487Z,101292.69
2023-03-20T12:37:34.461Z,101295.69
2023-03-20T12:40:04.376Z,101293.53
2023-03-20T12:43:01.466Z,101293.09
2023-03-20T12:45:38.138Z,101292.25
2023-03-20T12:48:18.266Z,101282.66
2023-03-20T12:51:37.362Z,101282.41
2023-03-20T12:54:30.360Z,101278.59
2023-03-20T12:57:10.141Z,101281.13
2023-03-20T13:00:02.844Z,101267.94
2023-03-20T13:02:33.557Z,101258.56
2023-03-20T13:05:15.601Z,101260.47
2023-03-20T13:08:17.336Z,101254.88
2023-03-20T13:10:57.447Z,101244.47
2023-03-20T13:13:42.911Z,101247.94
2023-03-20T13:16:46.721Z,101251.50
2023-03-20T13:19:29.828Z,101240.16
2023-03-20T13:22:01.928Z,101243.56
2023-03-20T13:24:40.637Z,101234.16
2023-03-20T13:27:10.527Z,101230.28
2023-03-20T13:29:45.792Z,101234.09
2023-03-20T13:32:25.684Z,101229.88
2023-03-20T13:35:13.953Z,101233.34
2023-03-20T13:37:54.527Z,101238.53
2023-03-20T13:40:28.296Z,101245.03
2023-03-20T13:43:24.149Z,101243.38
2023-03-20T13:46:13.584Z,101240.63
2023-03-20T13:48:42.622Z,101240.81
2023-03-20T13:51:26.290Z,101242.91
2023-03-20T13:54:14.062Z,101238.41
2023-03-20T13:56:52.943Z,101246.09
2023-03-20T13:59:41.688Z,101241.69
2023-03-20T14:02:25.496Z,101250.91
2023-03-20T14:04:56.334Z,101236.19
2023-03-20T14:07:37.750Z,101241.13
2023-03-20T14:10:22.547Z,101231.31
2023-03-20T14:12:50.195Z,101234.25
2023-03-20T14:15:20.026Z,101235.34
2023-03-20T14:17:48.847Z,101228.69
2023-03-20T14:21:04.466Z,101222.69
2023-03-20T14:23:42.862Z,101227.59
2023-03-20T14:26:18.986Z,101234.44
2023-03-20T14:29:11.509Z,101228.56
2023-03-20T14:31:42.147Z,101227.94
2023-03-20T14:34:12.164Z,101227.50
2023-03-20T14:37:01.208Z,101227.56
2023-03-20T14:39:44.043Z,101216.13
2023-03-20T14:42:39.352Z,101214.03
2023-03-20T14:45:28.071Z,101215.16
2023-03-20T14:48:07.603Z,101224.66
2023-03-20T14:50:36.346Z,101216.00
2023-03-20T14:53:24.556Z,101217.88
2023-03-20T14:56:02.406Z,101214.44
2023-03-20T14:58:43.143Z,101230.63
2023-03-20T15:01:17.755Z,101207.28
2023-03-20T15:04:01.380Z,101213.44
2023-03-20T15:06:29.397Z,101211.91
2023-03-20T15:09:04.595Z,101212.28
2023-03-20T15:11:31.477Z,101213.31
2023-03-20T15:13:59.949Z,101210.06
2023-03-20T15:16:31.409Z,101204.09
2023-03-20T15:18:58.756Z,101197.31
2023-03-20T15:21:38.067Z,101198.56
2023-03-20T15:24:05.236Z,101192.50
2023-03-20T15:26:34.706Z,101187.16
2023-03-20T15:29:05.168Z,101198.56
2023-03-20T15:31:34.604Z,101198.47
2023-03-20T15:34:04.716Z,101192.47
2023-03-20T15:36:36.826Z,101194.84
2023-03-20T15:39:22.408Z,101191.69
2023-03-20T15:41:56.098Z,101189.31
2023-03-20T15:44:28.113Z,101187.34
2023-03-20T15:47:01.401Z,101184.75
2023-03-20T15:49:30.575Z,101178.09
2023-03-20T15:52:00.734Z,101174.66
2023-03-20T15:54:27.275Z,101167.06
2023-03-20T15:56:57.104Z,101170.91
2023-03-20T15:59:27.150Z,101173.91
2023-03-20T16:01:57.314Z,101168.06
2023-03-20T16:04:24.491Z,101172.31
2023-03-20T16:06:56.575Z,101166.38
2023-03-20T16:09:23.678Z,101171.06
2023-03-20T16:12:00.336Z,101174.97
2023-03-20T16:14:31.625Z,101164.69
2023-03-20T16:16:59.697Z,101170.81
2023-03-20T16:19:27.362Z,101167.91
2023-03-20T16:21:57.145Z,101169.41
2023-03-20T16:24:35.428Z,101164.94
2023-03-20T16:27:07.398Z,101171.06
2023-03-20T16:29:34.603Z,101155.75
2023-03-20T16:32:20.705Z,101161.25
2023-03-20T16:34:51.346Z,101150.63
2023-03-20T16:37:30.579Z,101175.38
2023-03-20T16:40:37.152Z,101168.59
2023-03-20T16:43:16.814Z,101166.91
2023-03-20T16:45:53.032Z,101160.06
2023-03-20T16:48:32.576Z,101160.91
2023-03-20T16:51:02.496Z,101155.41
2023-03-20T16:53:36.801Z,101167.34
2023-03-20T16:56:05.118Z,101152.88
2023-03-20T16:58:34.168Z,101154.38
2023-03-20T17:01:05.088Z,101151.22
2023-03-20T17:03:39.991Z,101154.66
2023-03-20T17:06:21.658Z,101160.63
2023-03-20T17:09:00.536Z,101153.84
2023-03-20T17:11:31.424Z,101145.16
2023-03-20T17:13:57.809Z,101151.56
2023-03-20T17:16:25.652Z,101150.72
2023-03-20T17:19:19.090Z,101153.97
2023-03-20T17:21:46.833Z,101149.25
2023-03-20T17:24:15.030Z,101161.16
2023-03-20T17:26:44.627Z,101145.66
2023-03-20T17:29:12.193Z,101152.63
2023-03-20T17:31:39.232Z,101147.75
2023-03-20T17:34:05.973Z,101160.47
2023-03-20T17:36:35.312Z,101155.16
2023-03-20T17:39:02.137Z,101156.22
2023-03-20T17:41:29.192Z,101158.13
2023-03-20T17:44:00.456Z,101164.94
2023-03-20T17:46:31.547Z,101154.09
2023-03-20T17:49:01.802Z,101157.50
2023-03-20T17:51:28.557Z,101158.56
2023-03-20T17:53:55.315Z,101157.72
2023-03-20T17:56:22.235Z,101161.56
2023-03-20T17:58:48.958Z,101168.75
2023-03-20T18:01:15.624Z,101164.94
2023-03-20T18:03:42.568Z,101174.94
2023-03-20T18:06:18.960Z,101177.03
2023-03-20T18:08:45.394Z,101171.53
2023-03-20T18:11:11.875Z,101170.91
2023-03-20T18:13:38.341Z,101178.34
2023-03-20T18:16:05.323Z,101182.38
2023-03-20T18:18:31.768Z,101181.53
2023-03-20T18:20:59.394Z,101178.97
2023-03-20T18:23:25.807Z,101178.38
2023-03-20T18:25:52.341Z,101181.13
2023-03-20T18:28:22.666Z,101178.13
2023-03-20T18:30:50.158Z,101172.59
2023-03-20T18:33:17.085Z,101183.66
2023-03-20T18:35:44.157Z,101181.13
2023-03-20T18:38:13.644Z,101185.78
2023-03-20T18:40:40.593Z,101187.94
2023-03-20T18:43:06.997Z,101185.38
2023-03-20T18:45:33.489Z,101181.97
2023-03-20T18:48:03.606Z,101182.41
2023-03-20T18:50:37.785Z,101179.03
2023-03-20T18:53:05.687Z,101178.63
2023-03-20T18:55:32.601Z,101175.22
2023-03-20T18:57:59.549Z,101172.03
2023-03-20T19:00:27.677Z,101170.78
2023-03-20T19:02:56.196Z,101171.84
2023-03-20T19:05:24.607Z,101163.97
2023-03-20T19:07:51.312Z,101168.88
2023-03-20T19:10:25.042Z,101168.25
2023-03-20T19:12:52.908Z,101163.81
2023-03-20T19:15:20.553Z,101167.63
2023-03-20T19:17:47.436Z,101160.81
2023-03-20T19:20:36.496Z,101166.16
2023-03-20T19:23:11.307Z,101161.47
2023-03-20T19:25:38.696Z,101168.50
2023-03-20T19:28:06.551Z,101164.44
2023-03-20T19:30:37.080Z,101161.25
2023-03-20T19:33:05.000Z,101158.31
2023-03-20T19:36:04.039Z,101171.44
2023-03-20T19:38:21.525Z,101166.59
2023-03-20T19:40:52.892Z,101171.44
2023-03-20T19:43:23.222Z,101162.56
2023-03-20T19:45:58.374Z,101167.66
2023-03-20T19:48:43.279Z,101164.03
2023-03-20T19:51:21.582Z,101153.22
2023-03-20T19:53:48.977Z,101162.53
2023-03-20T19:56:17.461Z,101156.19
2023-03-20T19:58:44.517Z,101161.91
2023-03-20T20:01:19.434Z,101152.38
2023-03-20T20:03:46.924Z,101153.66
2023-03-20T20:06:13.671Z,101151.94
2023-03-20T20:08:48.288Z,101150.47
2023-03-20T20:11:19.090Z,101148.34
2023-03-20T20:14:07.274Z,101151.09
2023-03-20T20:16:33.413Z,101154.47
2023-03-20T20:18:59.881Z,101152.78
2023-03-20T20:24:12.731Z,101163.38
2023-03-20T20:26:49.297Z,101158.09
2023-03-20T20:29:20.302Z,101162.31
2023-03-20T20:31:46.745Z,101156.59
2023-03-20T20:37:42.765Z,101164.66
2023-03-20T20:39:47.263Z,101155.34
2023-03-20T20:42:14.449Z,101159.56
2023-03-20T20:44:41.309Z,101157.84
2023-03-20T20:47:08.379Z,101155.34
2023-03-20T20:49:35.185Z,101154.47
2023-03-20T20:52:02.060Z,101155.34
2023-03-20T20:54:28.996Z,101156.16
2023-03-20T20:56:56.109Z,101159.13
2023-03-20T20:59:22.792Z,101160.84
2023-03-20T21:01:49.540Z,101163.81
2023-03-20T21:04:16.309Z,101161.25
2023-03-20T21:09:29.114Z,101159.56
2023-03-20T21:11:55.614Z,101159.56
2023-03-20T21:14:22.116Z,101169.72
2023-03-20T21:16:48.604Z,101169.72
2023-03-20T21:19:15.215Z,101169.94
2023-03-20T21:21:42.078Z,101176.50
2023-03-20T21:24:30.435Z,101170.53
2023-03-20T21:27:02.994Z,101173.53
2023-03-20T21:29:29.525Z,101170.13
2023-03-20T21:31:56.067Z,101170.13
2023-03-20T21:34:22.561Z,101167.38
2023-03-20T21:36:50.929Z,101163.78
2023-03-20T21:39:18.436Z,101161.22
2023-03-20T21:41:45.241Z,101166.75
2023-03-20T21:44:17.183Z,101170.53
2023-03-20T21:47:39.874Z,101163.31
2023-03-20T22:04:02.800Z,101166.06
2023-03-20T22:31:55.370Z,101173.88
2023-03-20T22:34:39.777Z,101174.94
2023-03-20T22:45:10.598Z,101173.41
2023-03-20T22:47:37.564Z,101167.91
2023-03-20T22:50:04.522Z,101172.56
2023-03-20T22:52:47.694Z,101169.81
2023-03-20T22:55:16.647Z,101164.50
2023-03-20T22:57:52.880Z,101162.81
2023-03-20T23:00:27.144Z,101161.13
2023-03-20T23:02:57.469Z,101159.44
2023-03-20T23:05:29.814Z,101159.63
2023-03-20T23:07:56.563Z,101158.78
2023-03-20T23:10:23.263Z,101153.50
2023-03-20T23:12:49.739Z,101154.34
2023-03-20T23:15:16.334Z,101149.69
2023-03-20T23:17:42.766Z,101150.50
2023-03-20T23:20:13.349Z,101145.00
2023-03-20T23:22:42.706Z,101150.50
2023-03-20T23:25:18.481Z,101131.25
2023-03-20T23:27:50.722Z,101139.50
2023-03-20T23:30:17.755Z,101134.00
2023-03-20T23:32:44.280Z,101134.00
2023-03-20T23:35:11.147Z,101137.41
2023-03-20T23:37:37.526Z,101128.50
2023-03-20T23:40:04.606Z,101126.59
2023-03-20T23:42:31.347Z,101123.84
2023-03-20T23:47:45.245Z,101125.09
2023-03-20T23:50:20.756Z,101129.94
2023-03-20T23:53:00.984Z,101120.03
2023-03-20T23:55:35.719Z,101118.50
2023-03-20T23:58:02.637Z,101111.53
